Botwood, Canada
Current Conditions -  °F | °C
As of 11:39 AM on Saturday 25 Oct 2014 (Local Time) from CYQX Reporting Station
Light Rain Light Rain  
Wind Chill: 34°   Ceiling: 500
Heat Index: 43°   Visibility: 3mi
Dew Point: 41°   Wind: 22mph
Humidity: 93%   Direction: 50°NE
Pressure: 29.56"   Gusts: 33mph
Location:  49.15°N, 55.37°W
Report Text: CYQX 251339Z 05019G29KT 3SM -RA BR BKN005 BKN009 BKN014 06/05 A2956 RMK SF5SF1SC1 SLP013
Loading
Personal Weather Stations






























Interactive Weather Map
Tropical Storm Tracking
New forecast layout! Learn more

10-Day Weather Forecast

Advertisements
Track Severe Weather on mobile